sensor_id;sensor_type;location;lat;lon;timestamp;temperature;humidity
19152;DHT22;9708;53.114;9.388;2022-10-16T03:47:47;11.80;99.90
19152;DHT22;9708;53.114;9.388;2022-10-16T03:50:14;11.90;99.90
19152;DHT22;9708;53.114;9.388;2022-10-16T03:52:41;11.90;99.90
19152;DHT22;9708;53.114;9.388;2022-10-16T03:55:08;11.90;99.90
19152;DHT22;9708;53.114;9.388;2022-10-16T03:57:34;11.90;99.90
19152;DHT22;9708;53.114;9.388;2022-10-16T04:00:01;12.00;99.90
19152;DHT22;9708;53.114;9.388;2022-10-16T04:02:28;12.10;99.90
19152;DHT22;9708;53.114;9.388;2022-10-16T04:04:56;12.10;99.90
19152;DHT22;9708;53.114;9.388;2022-10-16T04:07:23;12.00;99.90
19152;DHT22;9708;53.114;9.388;2022-10-16T04:09:50;11.90;99.90
19152;DHT22;9708;53.114;9.388;2022-10-16T04:12:17;12.00;99.90
19152;DHT22;9708;53.114;9.388;2022-10-16T04:14:44;12.10;99.90
19152;DHT22;9708;53.114;9.388;2022-10-16T04:17:10;12.00;99.90
19152;DHT22;9708;53.114;9.388;2022-10-16T04:19:37;12.10;99.90
19152;DHT22;9708;53.114;9.388;2022-10-16T04:22:05;12.10;99.90
19152;DHT22;9708;53.114;9.388;2022-10-16T04:24:32;12.10;99.90
19152;DHT22;9708;53.114;9.388;2022-10-16T04:26:59;12.10;99.90
19152;DHT22;9708;53.114;9.388;2022-10-16T04:29:26;12.00;99.90
19152;DHT22;9708;53.114;9.388;2022-10-16T04:31:52;12.00;99.90
19152;DHT22;9708;53.114;9.388;2022-10-16T04:34:19;12.00;99.90
19152;DHT22;9708;53.114;9.388;2022-10-16T04:36:47;12.10;99.90
19152;DHT22;9708;53.114;9.388;2022-10-16T04:39:16;12.20;99.90
19152;DHT22;9708;53.114;9.388;2022-10-16T04:41:42;12.30;99.90
19152;DHT22;9708;53.114;9.388;2022-10-16T04:44:09;12.30;99.90
19152;DHT22;9708;53.114;9.388;2022-10-16T04:46:36;12.30;99.90
19152;DHT22;9708;53.114;9.388;2022-10-16T04:49:03;12.30;99.90
19152;DHT22;9708;53.114;9.388;2022-10-16T04:51:29;12.30;99.90
19152;DHT22;9708;53.114;9.388;2022-10-16T04:53:56;12.30;99.90
19152;DHT22;9708;53.114;9.388;2022-10-16T04:56:24;12.30;99.90
19152;DHT22;9708;53.114;9.388;2022-10-16T04:58:51;12.30;99.90
19152;DHT22;9708;53.114;9.388;2022-10-16T05:01:18;12.40;99.90
19152;DHT22;9708;53.114;9.388;2022-10-16T05:03:45;12.30;99.90
19152;DHT22;9708;53.114;9.388;2022-10-16T05:06:11;12.30;99.90
19152;DHT22;9708;53.114;9.388;2022-10-16T05:08:38;12.30;99.90
19152;DHT22;9708;53.114;9.388;2022-10-16T05:11:05;12.20;99.90
19152;DHT22;9708;53.114;9.388;2022-10-16T05:13:33;12.20;99.90
19152;DHT22;9708;53.114;9.388;2022-10-16T05:15:59;12.20;99.90
19152;DHT22;9708;53.114;9.388;2022-10-16T05:18:26;12.20;99.90
19152;DHT22;9708;53.114;9.388;2022-10-16T05:20:53;12.30;99.90
19152;DHT22;9708;53.114;9.388;2022-10-16T05:23:20;12.30;99.90
19152;DHT22;9708;53.114;9.388;2022-10-16T05:25:52;12.30;99.90
19152;DHT22;9708;53.114;9.388;2022-10-16T05:28:20;12.40;99.90
19152;DHT22;9708;53.114;9.388;2022-10-16T05:30:48;12.30;99.90
19152;DHT22;9708;53.114;9.388;2022-10-16T05:33:14;12.20;99.90
19152;DHT22;9708;53.114;9.388;2022-10-16T05:35:41;12.20;99.90
19152;DHT22;9708;53.114;9.388;2022-10-16T05:38:09;12.30;99.90
19152;DHT22;9708;53.114;9.388;2022-10-16T05:40:36;12.30;99.90
19152;DHT22;9708;53.114;9.388;2022-10-16T05:43:02;12.40;99.90
19152;DHT22;9708;53.114;9.388;2022-10-16T05:45:29;12.30;99.90
19152;DHT22;9708;53.114;9.388;2022-10-16T05:48:01;12.30;99.90
19152;DHT22;9708;53.114;9.388;2022-10-16T05:50:28;12.20;99.90
19152;DHT22;9708;53.114;9.388;2022-10-16T05:52:56;12.20;99.90
19152;DHT22;9708;53.114;9.388;2022-10-16T05:55:23;12.20;99.90
19152;DHT22;9708;53.114;9.388;2022-10-16T05:57:50;12.20;99.90
19152;DHT22;9708;53.114;9.388;2022-10-16T06:00:17;12.30;99.90
19152;DHT22;9708;53.114;9.388;2022-10-16T06:02:43;12.30;99.90
19152;DHT22;9708;53.114;9.388;2022-10-16T06:05:12;12.20;99.90
19152;DHT22;9708;53.114;9.388;2022-10-16T06:07:38;12.20;99.90
19152;DHT22;9708;53.114;9.388;2022-10-16T06:10:06;12.40;99.90
19152;DHT22;9708;53.114;9.388;2022-10-16T06:12:34;12.40;99.90
19152;DHT22;9708;53.114;9.388;2022-10-16T06:15:01;12.50;99.90
19152;DHT22;9708;53.114;9.388;2022-10-16T06:17:27;12.50;99.90
19152;DHT22;9708;53.114;9.388;2022-10-16T06:19:54;12.50;99.90
19152;DHT22;9708;53.114;9.388;2022-10-16T06:22:22;12.40;99.90
19152;DHT22;9708;53.114;9.388;2022-10-16T06:24:49;12.40;99.90
19152;DHT22;9708;53.114;9.388;2022-10-16T06:27:16;12.50;99.90
19152;DHT22;9708;53.114;9.388;2022-10-16T06:29:42;12.40;99.90
19152;DHT22;9708;53.114;9.388;2022-10-16T06:32:10;12.40;99.90
19152;DHT22;9708;53.114;9.388;2022-10-16T06:34:37;12.40;99.90
19152;DHT22;9708;53.114;9.388;2022-10-16T06:37:05;12.50;99.90
19152;DHT22;9708;53.114;9.388;2022-10-16T06:39:33;12.60;99.90
19152;DHT22;9708;53.114;9.388;2022-10-16T06:42:00;12.60;99.90
19152;DHT22;9708;53.114;9.388;2022-10-16T06:44:27;12.70;99.90
19152;DHT22;9708;53.114;9.388;2022-10-16T06:46:53;12.80;99.90
19152;DHT22;9708;53.114;9.388;2022-10-16T06:49:20;12.90;99.90
19152;DHT22;9708;53.114;9.388;2022-10-16T06:51:48;12.90;99.90
19152;DHT22;9708;53.114;9.388;2022-10-16T06:54:15;13.00;99.90
19152;DHT22;9708;53.114;9.388;2022-10-16T06:56:44;13.10;99.90
19152;DHT22;9708;53.114;9.388;2022-10-16T06:59:11;13.40;99.90
19152;DHT22;9708;53.114;9.388;2022-10-16T07:01:38;14.10;99.90
19152;DHT22;9708;53.114;9.388;2022-10-16T07:04:05;14.40;99.90
19152;DHT22;9708;53.114;9.388;2022-10-16T07:06:33;14.50;99.90
19152;DHT22;9708;53.114;9.388;2022-10-16T07:09:02;14.90;99.90
19152;DHT22;9708;53.114;9.388;2022-10-16T07:11:30;15.30;99.90
19152;DHT22;9708;53.114;9.388;2022-10-16T07:13:58;15.80;99.90
19152;DHT22;9708;53.114;9.388;2022-10-16T07:16:26;16.60;99.90
19152;DHT22;9708;53.114;9.388;2022-10-16T07:18:54;16.60;99.90
19152;DHT22;9708;53.114;9.388;2022-10-16T07:21:24;17.10;99.90
19152;DHT22;9708;53.114;9.388;2022-10-16T07:23:52;17.30;99.90
19152;DHT22;9708;53.114;9.388;2022-10-16T07:26:19;17.30;99.90
19152;DHT22;9708;53.114;9.388;2022-10-16T07:28:46;17.80;99.90
19152;DHT22;9708;53.114;9.388;2022-10-16T07:31:16;17.00;99.90
19152;DHT22;9708;53.114;9.388;2022-10-16T07:33:44;17.10;99.90
19152;DHT22;9708;53.114;9.388;2022-10-16T07:36:14;17.60;99.90
19152;DHT22;9708;53.114;9.388;2022-10-16T07:38:41;18.00;99.90
19152;DHT22;9708;53.114;9.388;2022-10-16T07:41:11;18.30;99.90
19152;DHT22;9708;53.114;9.388;2022-10-16T07:43:38;17.90;99.90
19152;DHT22;9708;53.114;9.388;2022-10-16T07:46:05;18.10;99.90
19152;DHT22;9708;53.114;9.388;2022-10-16T07:48:34;17.90;99.90
19152;DHT22;9708;53.114;9.388;2022-10-16T07:51:03;17.70;99.90
19152;DHT22;9708;53.114;9.388;2022-10-16T07:53:30;17.80;99.90
19152;DHT22;9708;53.114;9.388;2022-10-16T07:55:58;18.50;99.90
19152;DHT22;9708;53.114;9.388;2022-10-16T07:58:25;19.00;99.90
19152;DHT22;9708;53.114;9.388;2022-10-16T08:00:52;19.00;99.90
19152;DHT22;9708;53.114;9.388;2022-10-16T08:03:19;19.60;99.90
19152;DHT22;9708;53.114;9.388;2022-10-16T08:05:47;19.80;99.90
19152;DHT22;9708;53.114;9.388;2022-10-16T08:08:15;19.50;99.90
19152;DHT22;9708;53.114;9.388;2022-10-16T08:10:42;19.40;99.90
19152;DHT22;9708;53.114;9.388;2022-10-16T08:13:09;19.00;99.90
19152;DHT22;9708;53.114;9.388;2022-10-16T08:15:36;18.40;99.90
19152;DHT22;9708;53.114;9.388;2022-10-16T08:18:04;18.10;99.90
19152;DHT22;9708;53.114;9.388;2022-10-16T08:20:32;18.10;99.90
19152;DHT22;9708;53.114;9.388;2022-10-16T08:23:01;17.80;99.90
19152;DHT22;9708;53.114;9.388;2022-10-16T08:25:28;18.40;99.90
19152;DHT22;9708;53.114;9.388;2022-10-16T08:27:55;18.50;99.90
19152;DHT22;9708;53.114;9.388;2022-10-16T08:30:23;17.90;99.90
19152;DHT22;9708;53.114;9.388;2022-10-16T08:32:50;17.90;99.90
19152;DHT22;9708;53.114;9.388;2022-10-16T08:35:17;18.30;99.90
19152;DHT22;9708;53.114;9.388;2022-10-16T08:37:44;18.50;99.90
19152;DHT22;9708;53.114;9.388;2022-10-16T08:40:17;18.90;99.90
19152;DHT22;9708;53.114;9.388;2022-10-16T08:42:57;19.70;99.90
19152;DHT22;9708;53.114;9.388;2022-10-16T08:45:34;20.70;99.90
19152;DHT22;9708;53.114;9.388;2022-10-16T08:48:11;21.70;99.90
19152;DHT22;9708;53.114;9.388;2022-10-16T08:50:41;22.00;99.90
19152;DHT22;9708;53.114;9.388;2022-10-16T08:53:13;22.40;99.90
19152;DHT22;9708;53.114;9.388;2022-10-16T08:55:45;22.60;99.90
19152;DHT22;9708;53.114;9.388;2022-10-16T08:58:14;22.30;99.90
19152;DHT22;9708;53.114;9.388;2022-10-16T09:00:43;22.10;99.90
19152;DHT22;9708;53.114;9.388;2022-10-16T09:03:16;22.20;99.90
19152;DHT22;9708;53.114;9.388;2022-10-16T09:06:00;22.40;99.90
19152;DHT22;9708;53.114;9.388;2022-10-16T09:08:33;22.50;99.90
19152;DHT22;9708;53.114;9.388;2022-10-16T09:11:08;22.10;99.90
19152;DHT22;9708;53.114;9.388;2022-10-16T09:13:46;21.80;99.90
19152;DHT22;9708;53.114;9.388;2022-10-16T09:16:19;22.30;99.90
19152;DHT22;9708;53.114;9.388;2022-10-16T09:18:53;22.90;99.90
19152;DHT22;9708;53.114;9.388;2022-10-16T09:21:24;22.60;99.90
19152;DHT22;9708;53.114;9.388;2022-10-16T09:23:52;22.30;99.90
19152;DHT22;9708;53.114;9.388;2022-10-16T09:26:21;22.60;99.90
19152;DHT22;9708;53.114;9.388;2022-10-16T09:28:48;22.70;99.90
19152;DHT22;9708;53.114;9.388;2022-10-16T09:31:19;23.20;99.90
19152;DHT22;9708;53.114;9.388;2022-10-16T09:33:50;23.00;99.90
19152;DHT22;9708;53.114;9.388;2022-10-16T09:36:20;22.80;99.90
19152;DHT22;9708;53.114;9.388;2022-10-16T09:38:47;23.10;99.90
19152;DHT22;9708;53.114;9.388;2022-10-16T09:41:17;23.20;99.90
19152;DHT22;9708;53.114;9.388;2022-10-16T09:43:53;23.70;99.90
19152;DHT22;9708;53.114;9.388;2022-10-16T09:46:28;24.20;99.90
19152;DHT22;9708;53.114;9.388;2022-10-16T09:48:57;24.30;99.90
19152;DHT22;9708;53.114;9.388;2022-10-16T09:51:26;24.20;99.90
19152;DHT22;9708;53.114;9.388;2022-10-16T09:53:58;24.00;99.90
19152;DHT22;9708;53.114;9.388;2022-10-16T09:56:27;24.50;99.90
19152;DHT22;9708;53.114;9.388;2022-10-16T09:58:57;24.70;99.90
19152;DHT22;9708;53.114;9.388;2022-10-16T10:01:28;24.40;99.90
19152;DHT22;9708;53.114;9.388;2022-10-16T10:03:57;24.40;99.90
19152;DHT22;9708;53.114;9.388;2022-10-16T10:06:29;24.30;99.90
19152;DHT22;9708;53.114;9.388;2022-10-16T10:09:06;24.20;99.90
19152;DHT22;9708;53.114;9.388;2022-10-16T10:11:43;24.50;99.90
19152;DHT22;9708;53.114;9.388;2022-10-16T10:14:34;23.70;99.90
19152;DHT22;9708;53.114;9.388;2022-10-16T10:17:13;23.90;99.90
19152;DHT22;9708;53.114;9.388;2022-10-16T10:19:43;23.80;99.90
19152;DHT22;9708;53.114;9.388;2022-10-16T10:22:18;23.60;99.90
19152;DHT22;9708;53.114;9.388;2022-10-16T10:24:54;23.20;99.90
19152;DHT22;9708;53.114;9.388;2022-10-16T10:27:25;22.70;99.90
19152;DHT22;9708;53.114;9.388;2022-10-16T10:30:01;22.00;99.90
19152;DHT22;9708;53.114;9.388;2022-10-16T10:32:37;21.80;99.90
19152;DHT22;9708;53.114;9.388;2022-10-16T10:35:14;22.40;99.90
19152;DHT22;9708;53.114;9.388;2022-10-16T10:38:02;22.70;99.90
19152;DHT22;9708;53.114;9.388;2022-10-16T10:40:40;23.60;99.90
19152;DHT22;9708;53.114;9.388;2022-10-16T10:43:21;24.10;99.90
19152;DHT22;9708;53.114;9.388;2022-10-16T10:45:56;23.90;99.90
19152;DHT22;9708;53.114;9.388;2022-10-16T10:48:43;24.50;99.90
19152;DHT22;9708;53.114;9.388;2022-10-16T10:51:18;25.10;99.90
19152;DHT22;9708;53.114;9.388;2022-10-16T10:53:51;24.60;99.90
19152;DHT22;9708;53.114;9.388;2022-10-16T10:56:41;24.20;99.90
19152;DHT22;9708;53.114;9.388;2022-10-16T10:59:43;24.10;99.90
19152;DHT22;9708;53.114;9.388;2022-10-16T11:02:19;23.50;99.90
19152;DHT22;9708;53.114;9.388;2022-10-16T11:04:58;23.70;99.90
19152;DHT22;9708;53.114;9.388;2022-10-16T11:07:32;24.40;99.90
19152;DHT22;9708;53.114;9.388;2022-10-16T11:10:03;24.90;99.90
19152;DHT22;9708;53.114;9.388;2022-10-16T11:12:34;25.20;99.90
19152;DHT22;9708;53.114;9.388;2022-10-16T11:15:07;25.20;99.90
19152;DHT22;9708;53.114;9.388;2022-10-16T11:17:41;25.10;99.90
19152;DHT22;9708;53.114;9.388;2022-10-16T11:20:13;24.90;99.90
19152;DHT22;9708;53.114;9.388;2022-10-16T11:22:47;24.80;99.90
19152;DHT22;9708;53.114;9.388;2022-10-16T11:25:18;23.80;99.90
19152;DHT22;9708;53.114;9.388;2022-10-16T11:27:50;23.20;99.90
19152;DHT22;9708;53.114;9.388;2022-10-16T11:30:20;23.40;99.90
19152;DHT22;9708;53.114;9.388;2022-10-16T11:33:08;23.80;99.90
19152;DHT22;9708;53.114;9.388;2022-10-16T11:35:43;24.70;99.90
19152;DHT22;9708;53.114;9.388;2022-10-16T11:38:15;25.10;99.90
19152;DHT22;9708;53.114;9.388;2022-10-16T11:40:50;24.60;99.90
19152;DHT22;9708;53.114;9.388;2022-10-16T11:43:24;25.00;99.90
19152;DHT22;9708;53.114;9.388;2022-10-16T11:45:54;25.60;99.90
19152;DHT22;9708;53.114;9.388;2022-10-16T11:48:27;25.50;99.90
19152;DHT22;9708;53.114;9.388;2022-10-16T11:50:58;24.40;99.90
19152;DHT22;9708;53.114;9.388;2022-10-16T11:53:41;24.50;99.90
19152;DHT22;9708;53.114;9.388;2022-10-16T11:56:12;24.20;99.90
19152;DHT22;9708;53.114;9.388;2022-10-16T11:58:46;25.10;99.90
19152;DHT22;9708;53.114;9.388;2022-10-16T12:01:19;25.20;99.90
19152;DHT22;9708;53.114;9.388;2022-10-16T12:04:01;24.60;99.90
19152;DHT22;9708;53.114;9.388;2022-10-16T12:06:33;25.30;99.90
19152;DHT22;9708;53.114;9.388;2022-10-16T12:09:01;24.80;99.90
19152;DHT22;9708;53.114;9.388;2022-10-16T12:11:35;24.10;99.90
19152;DHT22;9708;53.114;9.388;2022-10-16T12:14:07;23.60;99.90
19152;DHT22;9708;53.114;9.388;2022-10-16T12:16:51;23.10;99.90
19152;DHT22;9708;53.114;9.388;2022-10-16T12:19:21;22.40;99.90
19152;DHT22;9708;53.114;9.388;2022-10-16T12:21:48;22.40;99.90
19152;DHT22;9708;53.114;9.388;2022-10-16T12:24:32;22.00;99.90
19152;DHT22;9708;53.114;9.388;2022-10-16T12:26:59;21.50;99.90
19152;DHT22;9708;53.114;9.388;2022-10-16T12:29:33;21.20;99.90
19152;DHT22;9708;53.114;9.388;2022-10-16T12:32:00;21.10;99.90
19152;DHT22;9708;53.114;9.388;2022-10-16T12:34:36;20.80;99.90
19152;DHT22;9708;53.114;9.388;2022-10-16T12:37:14;20.80;99.90
19152;DHT22;9708;53.114;9.388;2022-10-16T12:39:41;20.70;99.90
19152;DHT22;9708;53.114;9.388;2022-10-16T12:42:21;20.20;99.90
19152;DHT22;9708;53.114;9.388;2022-10-16T12:44:49;20.10;99.90
19152;DHT22;9708;53.114;9.388;2022-10-16T12:47:21;20.00;99.90
19152;DHT22;9708;53.114;9.388;2022-10-16T12:49:51;20.10;99.90
19152;DHT22;9708;53.114;9.388;2022-10-16T12:52:27;19.90;99.90
19152;DHT22;9708;53.114;9.388;2022-10-16T12:54:56;19.80;99.90
19152;DHT22;9708;53.114;9.388;2022-10-16T12:57:38;19.80;99.90
19152;DHT22;9708;53.114;9.388;2022-10-16T13:00:14;19.80;99.90
19152;DHT22;9708;53.114;9.388;2022-10-16T13:03:09;19.80;99.90
19152;DHT22;9708;53.114;9.388;2022-10-16T13:05:57;20.00;99.90
19152;DHT22;9708;53.114;9.388;2022-10-16T13:08:39;19.90;99.90
19152;DHT22;9708;53.114;9.388;2022-10-16T13:11:17;19.90;99.90
19152;DHT22;9708;53.114;9.388;2022-10-16T13:14:04;20.00;99.90
19152;DHT22;9708;53.114;9.388;2022-10-16T13:16:46;20.00;99.90
19152;DHT22;9708;53.114;9.388;2022-10-16T13:19:24;19.90;99.90
19152;DHT22;9708;53.114;9.388;2022-10-16T13:22:03;20.00;99.90
19152;DHT22;9708;53.114;9.388;2022-10-16T13:24:42;19.90;99.90
19152;DHT22;9708;53.114;9.388;2022-10-16T13:27:19;20.10;99.90
19152;DHT22;9708;53.114;9.388;2022-10-16T13:29:53;19.90;99.90
19152;DHT22;9708;53.114;9.388;2022-10-16T13:32:26;19.90;99.90
19152;DHT22;9708;53.114;9.388;2022-10-16T13:34:53;19.80;99.90
19152;DHT22;9708;53.114;9.388;2022-10-16T13:37:23;19.80;99.90
19152;DHT22;9708;53.114;9.388;2022-10-16T13:40:04;19.80;99.90
19152;DHT22;9708;53.114;9.388;2022-10-16T13:42:34;19.90;99.90
19152;DHT22;9708;53.114;9.388;2022-10-16T13:45:01;19.80;99.90
19152;DHT22;9708;53.114;9.388;2022-10-16T13:47:29;19.60;99.90
19152;DHT22;9708;53.114;9.388;2022-10-16T13:49:59;19.60;99.90
19152;DHT22;9708;53.114;9.388;2022-10-16T13:52:28;19.70;99.90
19152;DHT22;9708;53.114;9.388;2022-10-16T13:54:55;19.80;99.90
19152;DHT22;9708;53.114;9.388;2022-10-16T13:57:23;20.00;99.90
19152;DHT22;9708;53.114;9.388;2022-10-16T13:59:50;20.30;99.90
19152;DHT22;9708;53.114;9.388;2022-10-16T14:02:21;20.30;99.90
19152;DHT22;9708;53.114;9.388;2022-10-16T14:04:49;20.40;99.90
19152;DHT22;9708;53.114;9.388;2022-10-16T14:07:21;20.20;99.90
19152;DHT22;9708;53.114;9.388;2022-10-16T14:09:51;19.90;99.90
19152;DHT22;9708;53.114;9.388;2022-10-16T14:12:18;19.80;99.90
19152;DHT22;9708;53.114;9.388;2022-10-16T14:14:47;19.50;99.90
19152;DHT22;9708;53.114;9.388;2022-10-16T14:17:14;19.40;99.90
19152;DHT22;9708;53.114;9.388;2022-10-16T14:19:46;19.70;99.90
19152;DHT22;9708;53.114;9.388;2022-10-16T14:22:28;19.80;99.90
19152;DHT22;9708;53.114;9.388;2022-10-16T14:24:57;20.00;99.90
19152;DHT22;9708;53.114;9.388;2022-10-16T14:27:29;19.80;99.90
19152;DHT22;9708;53.114;9.388;2022-10-16T14:30:13;19.70;99.90
19152;DHT22;9708;53.114;9.388;2022-10-16T14:32:41;19.80;99.90
19152;DHT22;9708;53.114;9.388;2022-10-16T14:35:26;19.70;99.90
19152;DHT22;9708;53.114;9.388;2022-10-16T14:37:54;19.40;99.90
19152;DHT22;9708;53.114;9.388;2022-10-16T14:40:25;19.20;99.90
19152;DHT22;9708;53.114;9.388;2022-10-16T14:42:53;19.30;99.90
19152;DHT22;9708;53.114;9.388;2022-10-16T14:45:21;19.10;99.90
19152;DHT22;9708;53.114;9.388;2022-10-16T14:47:51;19.00;99.90
19152;DHT22;9708;53.114;9.388;2022-10-16T14:50:19;19.00;99.90
19152;DHT22;9708;53.114;9.388;2022-10-16T14:52:45;19.00;99.90
19152;DHT22;9708;53.114;9.388;2022-10-16T14:55:12;18.90;99.90
19152;DHT22;9708;53.114;9.388;2022-10-16T14:57:41;18.80;99.90
19152;DHT22;9708;53.114;9.388;2022-10-16T15:00:15;18.70;99.90
19152;DHT22;9708;53.114;9.388;2022-10-16T15:02:42;18.70;99.90
19152;DHT22;9708;53.114;9.388;2022-10-16T15:05:15;18.60;99.90
19152;DHT22;9708;53.114;9.388;2022-10-16T15:07:43;18.50;99.90
19152;DHT22;9708;53.114;9.388;2022-10-16T15:10:11;18.40;99.90
19152;DHT22;9708;53.114;9.388;2022-10-16T15:12:38;18.30;99.90
19152;DHT22;9708;53.114;9.388;2022-10-16T15:15:26;18.20;99.90
19152;DHT22;9708;53.114;9.388;2022-10-16T15:17:55;18.10;99.90
19152;DHT22;9708;53.114;9.388;2022-10-16T15:20:23;18.00;99.90
19152;DHT22;9708;53.114;9.388;2022-10-16T15:22:50;17.90;99.90
19152;DHT22;9708;53.114;9.388;2022-10-16T15:25:31;17.90;99.90
19152;DHT22;9708;53.114;9.388;2022-10-16T15:27:58;17.80;99.90
19152;DHT22;9708;53.114;9.388;2022-10-16T15:30:27;17.70;99.90
19152;DHT22;9708;53.114;9.388;2022-10-16T15:32:54;17.60;99.90
19152;DHT22;9708;53.114;9.388;2022-10-16T15:35:21;17.60;99.90
19152;DHT22;9708;53.114;9.388;2022-10-16T15:37:48;17.50;99.90
19152;DHT22;9708;53.114;9.388;2022-10-16T15:40:16;17.40;99.90
19152;DHT22;9708;53.114;9.388;2022-10-16T15:42:43;17.40;99.90
19152;DHT22;9708;53.114;9.388;2022-10-16T15:45:11;17.30;99.90
19152;DHT22;9708;53.114;9.388;2022-10-16T15:47:40;17.20;99.90
19152;DHT22;9708;53.114;9.388;2022-10-16T15:50:09;17.10;99.90
19152;DHT22;9708;53.114;9.388;2022-10-16T15:52:36;17.00;99.90
19152;DHT22;9708;53.114;9.388;2022-10-16T15:55:05;16.90;99.90
19152;DHT22;9708;53.114;9.388;2022-10-16T15:57:32;16.80;99.90
19152;DHT22;9708;53.114;9.388;2022-10-16T15:59:58;16.70;99.90
19152;DHT22;9708;53.114;9.388;2022-10-16T16:02:25;16.50;99.90
19152;DHT22;9708;53.114;9.388;2022-10-16T16:04:53;16.40;99.90
19152;DHT22;9708;53.114;9.388;2022-10-16T16:07:20;16.20;99.90
19152;DHT22;9708;53.114;9.388;2022-10-16T16:09:46;16.10;99.90
19152;DHT22;9708;53.114;9.388;2022-10-16T16:12:13;16.00;99.90
19152;DHT22;9708;53.114;9.388;2022-10-16T16:14:40;15.90;99.90
19152;DHT22;9708;53.114;9.388;2022-10-16T16:17:08;15.70;99.90
19152;DHT22;9708;53.114;9.388;2022-10-16T16:19:34;15.60;99.90
19152;DHT22;9708;53.114;9.388;2022-10-16T16:22:03;15.50;99.90
19152;DHT22;9708;53.114;9.388;2022-10-16T16:24:29;15.20;99.90
19152;DHT22;9708;53.114;9.388;2022-10-16T16:26:56;15.10;99.90
19152;DHT22;9708;53.114;9.388;2022-10-16T16:29:23;14.90;99.90
19152;DHT22;9708;53.114;9.388;2022-10-16T16:31:50;14.80;99.90
19152;DHT22;9708;53.114;9.388;2022-10-16T16:34:23;14.60;99.90
19152;DHT22;9708;53.114;9.388;2022-10-16T16:36:49;14.50;99.90
19152;DHT22;9708;53.114;9.388;2022-10-16T16:39:18;14.30;99.90
19152;DHT22;9708;53.114;9.388;2022-10-16T16:41:45;14.20;99.90
19152;DHT22;9708;53.114;9.388;2022-10-16T16:44:13;14.10;99.90
19152;DHT22;9708;53.114;9.388;2022-10-16T16:46:41;14.00;99.90
19152;DHT22;9708;53.114;9.388;2022-10-16T16:49:09;13.90;99.90
19152;DHT22;9708;53.114;9.388;2022-10-16T16:51:36;13.70;99.90
19152;DHT22;9708;53.114;9.388;2022-10-16T16:54:03;13.60;99.90
19152;DHT22;9708;53.114;9.388;2022-10-16T16:56:32;13.50;99.90
19152;DHT22;9708;53.114;9.388;2022-10-16T16:58:59;13.50;99.90
19152;DHT22;9708;53.114;9.388;2022-10-16T17:01:26;13.40;99.90
19152;DHT22;9708;53.114;9.388;2022-10-16T17:03:55;13.40;99.90
19152;DHT22;9708;53.114;9.388;2022-10-16T17:06:27;13.20;99.90
19152;DHT22;9708;53.114;9.388;2022-10-16T17:08:55;13.20;99.90
19152;DHT22;9708;53.114;9.388;2022-10-16T17:11:24;13.10;99.90
19152;DHT22;9708;53.114;9.388;2022-10-16T17:13:54;13.00;99.90
19152;DHT22;9708;53.114;9.388;2022-10-16T17:16:24;13.00;99.90
19152;DHT22;9708;53.114;9.388;2022-10-16T17:18:51;12.90;99.90
19152;DHT22;9708;53.114;9.388;2022-10-16T17:21:18;12.80;99.90
19152;DHT22;9708;53.114;9.388;2022-10-16T17:23:45;12.70;99.90
19152;DHT22;9708;53.114;9.388;2022-10-16T17:26:14;12.60;99.90
19152;DHT22;9708;53.114;9.388;2022-10-16T17:28:42;12.50;99.90
19152;DHT22;9708;53.114;9.388;2022-10-16T17:31:12;12.50;99.90
19152;DHT22;9708;53.114;9.388;2022-10-16T17:33:39;12.40;99.90
19152;DHT22;9708;53.114;9.388;2022-10-16T17:36:06;12.30;99.90
19152;DHT22;9708;53.114;9.388;2022-10-16T17:38:34;12.30;99.90
19152;DHT22;9708;53.114;9.388;2022-10-16T17:41:10;12.30;99.90
19152;DHT22;9708;53.114;9.388;2022-10-16T17:43:38;12.20;99.90
19152;DHT22;9708;53.114;9.388;2022-10-16T17:46:05;12.10;99.90
19152;DHT22;9708;53.114;9.388;2022-10-16T17:48:36;12.10;99.90
19152;DHT22;9708;53.114;9.388;2022-10-16T17:51:04;12.00;99.90
19152;DHT22;9708;53.114;9.388;2022-10-16T17:53:31;12.00;99.90
19152;DHT22;9708;53.114;9.388;2022-10-16T17:56:02;11.90;99.90
19152;DHT22;9708;53.114;9.388;2022-10-16T17:58:29;11.80;99.90
19152;DHT22;9708;53.114;9.388;2022-10-16T18:00:56;11.70;99.90
19152;DHT22;9708;53.114;9.388;2022-10-16T18:03:22;11.70;99.90
19152;DHT22;9708;53.114;9.388;2022-10-16T18:05:52;11.70;99.90
19152;DHT22;9708;53.114;9.388;2022-10-16T18:08:19;11.60;99.90
19152;DHT22;9708;53.114;9.388;2022-10-16T18:10:47;11.60;99.90
19152;DHT22;9708;53.114;9.388;2022-10-16T18:13:14;11.60;99.90
19152;DHT22;9708;53.114;9.388;2022-10-16T18:15:42;11.50;99.90
19152;DHT22;9708;53.114;9.388;2022-10-16T18:18:08;11.50;99.90
19152;DHT22;9708;53.114;9.388;2022-10-16T18:20:35;11.50;99.90
19152;DHT22;9708;53.114;9.388;2022-10-16T18:23:03;11.40;99.90
19152;DHT22;9708;53.114;9.388;2022-10-16T18:25:30;11.40;99.90
19152;DHT22;9708;53.114;9.388;2022-10-16T18:27:57;11.40;99.90
19152;DHT22;9708;53.114;9.388;2022-10-16T18:30:24;11.40;99.90
19152;DHT22;9708;53.114;9.388;2022-10-16T18:32:50;11.30;99.90
19152;DHT22;9708;53.114;9.388;2022-10-16T18:35:18;11.30;99.90
19152;DHT22;9708;53.114;9.388;2022-10-16T18:37:44;11.30;99.90
19152;DHT22;9708;53.114;9.388;2022-10-16T18:40:13;11.40;99.90
19152;DHT22;9708;53.114;9.388;2022-10-16T18:42:39;11.30;99.90
19152;DHT22;9708;53.114;9.388;2022-10-16T18:45:07;11.30;99.90
19152;DHT22;9708;53.114;9.388;2022-10-16T18:47:34;11.30;99.90
19152;DHT22;9708;53.114;9.388;2022-10-16T18:50:01;11.20;99.90
19152;DHT22;9708;53.114;9.388;2022-10-16T18:52:28;11.20;99.90
19152;DHT22;9708;53.114;9.388;2022-10-16T18:54:56;11.20;99.90
19152;DHT22;9708;53.114;9.388;2022-10-16T18:57:26;11.20;99.90
19152;DHT22;9708;53.114;9.388;2022-10-16T18:59:54;11.20;99.90
19152;DHT22;9708;53.114;9.388;2022-10-16T19:02:21;11.20;99.90
19152;DHT22;9708;53.114;9.388;2022-10-16T19:04:47;11.20;99.90
19152;DHT22;9708;53.114;9.388;2022-10-16T19:07:14;11.20;99.90
19152;DHT22;9708;53.114;9.388;2022-10-16T19:09:41;11.20;99.90
19152;DHT22;9708;53.114;9.388;2022-10-16T19:12:08;11.20;99.90
19152;DHT22;9708;53.114;9.388;2022-10-16T19:14:37;11.10;99.90
19152;DHT22;9708;53.114;9.388;2022-10-16T19:17:03;11.10;99.90
19152;DHT22;9708;53.114;9.388;2022-10-16T19:19:30;11.20;99.90
19152;DHT22;9708;53.114;9.388;2022-10-16T19:21:57;11.10;99.90
19152;DHT22;9708;53.114;9.388;2022-10-16T19:24:36;11.10;99.90
19152;DHT22;9708;53.114;9.388;2022-10-16T19:27:03;11.10;99.90
19152;DHT22;9708;53.114;9.388;2022-10-16T19:29:30;11.20;99.90
19152;DHT22;9708;53.114;9.388;2022-10-16T19:31:59;11.10;99.90
19152;DHT22;9708;53.114;9.388;2022-10-16T19:34:27;11.10;99.90
19152;DHT22;9708;53.114;9.388;2022-10-16T19:36:55;11.20;99.90
19152;DHT22;9708;53.114;9.388;2022-10-16T19:39:23;11.10;99.90
19152;DHT22;9708;53.114;9.388;2022-10-16T19:41:50;11.10;99.90
19152;DHT22;9708;53.114;9.388;2022-10-16T19:44:17;11.10;99.90
19152;DHT22;9708;53.114;9.388;2022-10-16T19:46:45;11.10;99.90
19152;DHT22;9708;53.114;9.388;2022-10-16T19:49:15;11.10;99.90